createdAt,value
2023-02-15T00:02:10.662Z,103.03
2023-02-15T00:04:48.254Z,101.10
2023-02-15T00:07:17.618Z,99.90
2023-02-15T00:09:47.674Z,99.70
2023-02-15T00:12:17.857Z,98.80
2023-02-15T00:14:46.317Z,97.63
2023-02-15T00:17:14.731Z,98.57
2023-02-15T00:19:43.187Z,96.17
2023-02-15T00:22:11.617Z,96.50
2023-02-15T00:24:40.058Z,96.60
2023-02-15T00:27:10.181Z,96.30
2023-02-15T00:29:40.069Z,95.37
2023-02-15T00:32:08.508Z,95.13
2023-02-15T00:34:37.212Z,96.63
2023-02-15T00:37:05.575Z,94.27
2023-02-15T00:39:34.258Z,93.30
2023-02-15T00:42:02.658Z,93.77
2023-02-15T00:44:31.053Z,94.30
2023-02-15T00:47:00.854Z,90.53
2023-02-15T00:49:29.294Z,92.63
2023-02-15T00:51:57.738Z,92.80
2023-02-15T00:54:27.013Z,91.27
2023-02-15T00:56:55.602Z,90.57
2023-02-15T00:59:24.001Z,94.07
2023-02-15T01:01:52.364Z,94.33
2023-02-15T01:04:22.194Z,95.07
2023-02-15T01:06:50.608Z,97.20
2023-02-15T01:09:18.988Z,98.20
2023-02-15T01:11:47.420Z,104.70
2023-02-15T01:14:15.792Z,101.47
2023-02-15T01:16:44.188Z,104.53
2023-02-15T01:19:12.616Z,111.53
2023-02-15T01:21:42.439Z,109.40
2023-02-15T01:24:14.370Z,107.40
2023-02-15T01:26:42.796Z,111.00
2023-02-15T01:29:11.204Z,107.60
2023-02-15T01:31:40.288Z,110.73
2023-02-15T01:34:08.818Z,112.63
2023-02-15T01:36:37.223Z,107.87
2023-02-15T01:39:08.885Z,110.00
2023-02-15T01:41:37.270Z,108.67
2023-02-15T01:44:06.023Z,108.77
2023-02-15T01:46:37.194Z,106.10
2023-02-15T01:49:06.346Z,108.43
2023-02-15T01:51:36.761Z,107.10
2023-02-15T01:54:09.668Z,107.83
2023-02-15T01:56:40.025Z,107.40
2023-02-15T01:59:10.354Z,114.47
2023-02-15T02:01:39.047Z,111.83
2023-02-15T02:04:12.165Z,115.07
2023-02-15T02:06:40.850Z,112.40
2023-02-15T02:09:11.331Z,113.20
2023-02-15T02:11:41.350Z,111.50
2023-02-15T02:14:10.085Z,115.77
2023-02-15T02:16:42.815Z,110.53
2023-02-15T02:19:29.074Z,109.77
2023-02-15T02:22:10.610Z,108.00
2023-02-15T02:24:57.336Z,106.17
2023-02-15T02:27:41.063Z,108.20
2023-02-15T02:30:17.056Z,107.70
2023-02-15T02:32:52.954Z,109.93
2023-02-15T02:35:25.216Z,110.13
2023-02-15T02:37:59.260Z,102.37
2023-02-15T02:40:33.250Z,104.57
2023-02-15T02:43:04.254Z,114.73
2023-02-15T02:45:35.683Z,112.07
2023-02-15T02:48:09.281Z,111.53
2023-02-15T02:50:37.670Z,108.83
2023-02-15T02:53:06.253Z,103.57
2023-02-15T02:55:37.818Z,106.83
2023-02-15T02:58:08.513Z,103.43
2023-02-15T03:00:40.194Z,102.47
2023-02-15T03:03:15.878Z,99.70
2023-02-15T03:05:46.643Z,96.50
2023-02-15T03:08:22.518Z,91.20
2023-02-15T03:10:51.107Z,96.90
2023-02-15T03:13:19.620Z,98.80
2023-02-15T03:16:06.086Z,94.23
2023-02-15T03:18:38.521Z,93.33
2023-02-15T03:21:08.042Z,86.47
2023-02-15T03:23:37.197Z,87.03
2023-02-15T03:26:07.721Z,85.13
2023-02-15T03:28:38.192Z,79.80
2023-02-15T03:31:08.238Z,78.57
2023-02-15T03:33:39.415Z,77.87
2023-02-15T03:36:11.908Z,86.60
2023-02-15T03:38:45.931Z,80.70
2023-02-15T03:41:15.189Z,76.40
2023-02-15T03:43:48.360Z,77.07
2023-02-15T03:46:20.814Z,75.50
2023-02-15T03:48:52.436Z,70.37
2023-02-15T03:51:39.113Z,69.07
2023-02-15T03:54:10.150Z,66.63
2023-02-15T03:56:39.546Z,69.60
2023-02-15T03:59:25.649Z,70.43
2023-02-15T04:02:01.512Z,65.40
2023-02-15T04:04:34.147Z,64.37
2023-02-15T04:07:02.883Z,64.20
2023-02-15T04:09:49.051Z,64.93
2023-02-15T04:12:17.456Z,62.13
2023-02-15T04:15:03.451Z,61.57
2023-02-15T04:17:31.892Z,59.63
2023-02-15T04:20:19.137Z,62.60
2023-02-15T04:23:05.301Z,60.10
2023-02-15T04:25:33.755Z,59.23
2023-02-15T04:28:02.159Z,57.33
2023-02-15T04:30:30.683Z,56.10
2023-02-15T04:32:59.135Z,53.47
2023-02-15T04:35:28.908Z,54.97
2023-02-15T04:37:57.863Z,47.83
2023-02-15T04:40:26.273Z,47.70
2023-02-15T04:42:54.647Z,45.17
2023-02-15T04:45:23.069Z,44.87
2023-02-15T04:47:51.796Z,43.73
2023-02-15T04:50:20.267Z,43.53
2023-02-15T04:52:50.044Z,42.70
2023-02-15T04:55:18.572Z,46.33
2023-02-15T04:57:47.219Z,46.17
2023-02-15T05:00:15.869Z,45.80
2023-02-15T05:02:44.289Z,42.43
2023-02-15T05:05:14.064Z,42.23
2023-02-15T05:07:42.506Z,44.00
2023-02-15T05:10:12.977Z,45.47
2023-02-15T05:12:41.410Z,44.37
2023-02-15T05:15:10.483Z,42.10
2023-02-15T05:17:39.021Z,40.37
2023-02-15T05:20:08.051Z,40.57
2023-02-15T05:22:36.456Z,39.30
2023-02-15T05:25:22.305Z,41.20
2023-02-15T05:28:09.548Z,39.87
2023-02-15T05:30:38.133Z,40.50
2023-02-15T05:33:06.623Z,40.00
2023-02-15T05:35:35.415Z,38.70
2023-02-15T05:38:03.855Z,39.53
2023-02-15T05:40:32.279Z,41.10
2023-02-15T05:43:02.028Z,41.83
2023-02-15T05:45:30.473Z,39.97
2023-02-15T05:48:00.134Z,43.13
2023-02-15T05:50:28.824Z,42.13
2023-02-15T05:52:57.818Z,41.17
2023-02-15T05:55:26.405Z,44.17
2023-02-15T05:57:54.793Z,44.07
2023-02-15T06:00:24.836Z,45.53
2023-02-15T06:02:53.246Z,45.87
2023-02-15T06:05:21.654Z,43.73
2023-02-15T06:07:50.068Z,42.47
2023-02-15T06:10:18.581Z,43.47
2023-02-15T06:12:47.006Z,41.53
2023-02-15T06:15:16.068Z,41.17
2023-02-15T06:17:46.210Z,43.17
2023-02-15T06:20:15.130Z,42.90
2023-02-15T06:22:43.595Z,43.87
2023-02-15T06:25:12.297Z,43.40
2023-02-15T06:27:40.691Z,42.50
2023-02-15T06:30:10.100Z,40.30
2023-02-15T06:32:38.712Z,38.70
2023-02-15T06:35:08.766Z,39.33
2023-02-15T06:37:37.176Z,37.80
2023-02-15T06:40:05.864Z,38.17
2023-02-15T06:42:34.327Z,36.63
2023-02-15T06:45:02.763Z,34.43
2023-02-15T06:47:31.144Z,33.40
2023-02-15T06:49:59.623Z,32.60
2023-02-15T06:52:29.475Z,33.00
2023-02-15T06:54:58.239Z,33.47
2023-02-15T06:57:26.628Z,33.30
2023-02-15T06:59:55.354Z,32.23
2023-02-15T07:02:23.785Z,29.53
2023-02-15T07:04:52.215Z,27.80
2023-02-15T07:07:20.690Z,28.43
2023-02-15T07:09:50.505Z,28.27
2023-02-15T07:12:36.606Z,27.83
2023-02-15T07:15:06.951Z,28.87
2023-02-15T07:17:36.421Z,26.37
2023-02-15T07:20:05.339Z,27.77
2023-02-15T07:22:35.078Z,27.13
2023-02-15T07:25:05.055Z,31.90
2023-02-15T07:27:33.565Z,32.33
2023-02-15T07:30:02.456Z,32.53
2023-02-15T07:32:31.640Z,32.43
2023-02-15T07:35:00.560Z,34.53
2023-02-15T07:37:29.236Z,32.50
2023-02-15T07:39:57.655Z,35.43
2023-02-15T07:42:27.481Z,31.93
2023-02-15T07:44:55.873Z,33.03
2023-02-15T07:47:24.253Z,31.47
2023-02-15T07:49:52.769Z,32.67
2023-02-15T07:52:21.174Z,31.30
2023-02-15T07:54:50.155Z,31.70
2023-02-15T07:57:18.597Z,30.33
2023-02-15T07:59:48.639Z,33.27
2023-02-15T08:02:18.476Z,33.13
2023-02-15T08:04:46.999Z,29.30
2023-02-15T08:07:15.466Z,29.03
2023-02-15T08:09:43.855Z,30.73
2023-02-15T08:12:12.304Z,31.73
2023-02-15T08:14:40.700Z,28.13
2023-02-15T08:17:10.469Z,29.13
2023-02-15T08:19:38.920Z,26.93
2023-02-15T08:22:08.554Z,21.60
2023-02-15T08:24:38.711Z,25.60
2023-02-15T08:27:08.060Z,25.63
2023-02-15T08:29:38.474Z,25.33
2023-02-15T08:32:10.338Z,23.90
2023-02-15T08:34:40.364Z,32.08
2023-02-15T08:37:08.810Z,25.37
2023-02-15T08:39:37.853Z,19.70
2023-02-15T08:42:06.426Z,18.60
2023-02-15T08:44:34.862Z,22.93
2023-02-15T08:47:04.846Z,23.40
2023-02-15T08:49:34.921Z,21.93
2023-02-15T08:52:03.349Z,23.50
2023-02-15T08:54:32.062Z,23.27
2023-02-15T08:57:01.061Z,22.63
2023-02-15T08:59:29.522Z,21.37
2023-02-15T09:01:58.250Z,20.67
2023-02-15T09:04:26.676Z,18.23
2023-02-15T09:06:56.512Z,20.50
2023-02-15T09:09:25.108Z,21.00
2023-02-15T09:11:58.847Z,22.03
2023-02-15T09:14:28.056Z,21.47
2023-02-15T09:16:57.119Z,19.93
2023-02-15T09:19:26.143Z,21.47
2023-02-15T09:21:56.153Z,19.67
2023-02-15T09:24:24.535Z,20.60
2023-02-15T09:26:52.967Z,21.07
2023-02-15T09:29:21.920Z,21.07
2023-02-15T09:31:51.487Z,20.90
2023-02-15T09:34:21.179Z,20.70
2023-02-15T09:36:50.001Z,20.37
2023-02-15T09:39:20.692Z,20.77
2023-02-15T09:42:09.895Z,20.10
2023-02-15T09:44:46.419Z,19.27
2023-02-15T09:47:25.646Z,18.57
2023-02-15T09:49:57.114Z,18.97
2023-02-15T09:52:32.125Z,22.80
2023-02-15T09:55:09.121Z,19.83
2023-02-15T09:57:40.013Z,17.43
2023-02-15T10:00:14.010Z,19.40
2023-02-15T10:02:49.770Z,19.50
2023-02-15T10:05:25.296Z,17.87
2023-02-15T10:08:02.130Z,20.13
2023-02-15T10:10:35.574Z,19.23
2023-02-15T10:13:10.445Z,18.27
2023-02-15T10:15:53.002Z,17.60
2023-02-15T10:18:26.801Z,17.50
2023-02-15T10:20:59.787Z,17.50
2023-02-15T10:23:33.975Z,21.43
2023-02-15T10:26:07.273Z,20.70
2023-02-15T10:28:41.373Z,17.67
2023-02-15T10:31:15.208Z,17.57
2023-02-15T10:33:44.393Z,17.77
2023-02-15T10:36:18.305Z,19.67
2023-02-15T10:38:51.770Z,20.17
2023-02-15T10:41:28.614Z,19.60
2023-02-15T10:44:13.687Z,21.07
2023-02-15T10:46:49.805Z,22.20
2023-02-15T10:49:25.723Z,20.07
2023-02-15T10:51:59.445Z,22.50
2023-02-15T10:54:33.136Z,23.57
2023-02-15T10:57:07.121Z,22.53
2023-02-15T10:59:44.154Z,19.87
2023-02-15T11:02:17.371Z,21.13
2023-02-15T11:04:51.602Z,22.93
2023-02-15T11:07:21.543Z,24.63
2023-02-15T11:09:51.846Z,23.23
2023-02-15T11:12:23.134Z,22.97
2023-02-15T11:14:55.151Z,23.80
2023-02-15T11:17:25.226Z,24.87
2023-02-15T11:19:57.028Z,25.37
2023-02-15T11:22:25.412Z,24.87
2023-02-15T11:24:55.494Z,23.70
2023-02-15T11:27:27.243Z,23.37
2023-02-15T11:29:57.896Z,23.77
2023-02-15T11:32:27.975Z,26.67
2023-02-15T11:34:57.913Z,26.70
2023-02-15T11:37:30.654Z,25.57
2023-02-15T11:39:59.046Z,24.97
2023-02-15T11:42:30.000Z,24.37
2023-02-15T11:45:01.176Z,28.73
2023-02-15T11:47:29.683Z,27.93
2023-02-15T11:49:58.067Z,26.77
2023-02-15T11:52:26.543Z,26.47
2023-02-15T11:54:56.170Z,25.57
2023-02-15T11:57:26.920Z,29.87
2023-02-15T11:59:59.063Z,30.03
2023-02-15T12:02:31.091Z,28.97
2023-02-15T12:05:01.494Z,28.13
2023-02-15T12:07:31.424Z,28.27
2023-02-15T12:10:05.195Z,28.30
2023-02-15T12:12:34.869Z,29.63
2023-02-15T12:15:06.040Z,27.60
2023-02-15T12:17:36.416Z,27.80
2023-02-15T12:20:06.043Z,27.13
2023-02-15T12:22:36.227Z,28.27
2023-02-15T12:25:06.812Z,28.80
2023-02-15T12:27:35.840Z,27.87
2023-02-15T12:30:09.589Z,26.70
2023-02-15T12:32:38.780Z,27.30
2023-02-15T12:35:11.564Z,27.87
2023-02-15T12:37:40.169Z,31.63
2023-02-15T12:40:21.911Z,27.90
2023-02-15T12:42:50.344Z,27.47
2023-02-15T12:45:28.821Z,26.80
2023-02-15T12:48:11.640Z,27.40
2023-02-15T12:50:41.088Z,27.67
2023-02-15T12:53:10.441Z,28.53
2023-02-15T12:55:45.440Z,28.50
2023-02-15T12:58:19.398Z,27.70
2023-02-15T13:00:49.311Z,26.50
2023-02-15T13:03:21.616Z,27.90
2023-02-15T13:05:54.225Z,29.90
2023-02-15T13:08:23.963Z,31.87
2023-02-15T13:10:56.932Z,30.67
2023-02-15T13:13:27.251Z,32.63
2023-02-15T13:15:58.442Z,31.53
2023-02-15T13:18:31.548Z,32.00
2023-02-15T13:21:01.037Z,32.83
2023-02-15T13:23:31.038Z,34.53
2023-02-15T13:26:01.636Z,32.03
2023-02-15T13:28:35.107Z,33.03
2023-02-15T13:31:05.372Z,32.60
2023-02-15T13:33:36.192Z,34.00
2023-02-15T13:36:09.016Z,34.03
2023-02-15T13:38:48.632Z,35.37
2023-02-15T13:41:19.536Z,36.00
2023-02-15T13:43:53.538Z,34.63
2023-02-15T13:46:26.875Z,35.17
2023-02-15T13:49:01.868Z,35.93
2023-02-15T13:51:33.689Z,37.57
2023-02-15T13:54:10.703Z,36.43
2023-02-15T13:56:46.523Z,37.63
2023-02-15T13:59:21.287Z,37.00
2023-02-15T14:01:54.900Z,37.33
2023-02-15T14:04:38.173Z,36.73
2023-02-15T14:07:17.771Z,40.83
2023-02-15T14:09:50.938Z,39.57
2023-02-15T14:12:34.934Z,38.63
2023-02-15T14:15:11.186Z,38.70
2023-02-15T14:17:45.982Z,37.80
2023-02-15T14:20:20.332Z,39.43
2023-02-15T14:22:51.292Z,40.70
2023-02-15T14:25:21.567Z,40.17
2023-02-15T14:27:57.350Z,43.47
2023-02-15T14:30:28.250Z,41.20
2023-02-15T14:33:00.423Z,40.13
2023-02-15T14:35:30.030Z,45.23
2023-02-15T14:38:01.800Z,46.90
2023-02-15T14:40:53.733Z,41.90
2023-02-15T14:43:25.002Z,42.67
2023-02-15T14:45:56.238Z,46.23
2023-02-15T14:48:28.730Z,43.37
2023-02-15T14:50:57.105Z,46.07
2023-02-15T14:53:28.670Z,45.20
2023-02-15T14:56:18.479Z,42.83
2023-02-15T14:58:58.561Z,42.83
2023-02-15T15:01:29.042Z,42.70
2023-02-15T15:04:01.412Z,42.53
2023-02-15T15:06:31.509Z,44.53
2023-02-15T15:09:02.992Z,43.33
2023-02-15T15:11:44.241Z,41.63
2023-02-15T15:14:14.545Z,42.07
2023-02-15T15:16:50.865Z,43.63
2023-02-15T15:19:50.979Z,41.70
2023-02-15T15:22:22.075Z,41.00
2023-02-15T15:24:54.725Z,40.80
2023-02-15T15:27:42.855Z,38.47
2023-02-15T15:30:29.769Z,40.60
2023-02-15T15:33:01.912Z,36.53
2023-02-15T15:35:35.948Z,35.47
2023-02-15T15:38:22.048Z,38.17
2023-02-15T15:41:00.256Z,36.13
2023-02-15T15:43:49.741Z,32.80
2023-02-15T15:46:36.838Z,35.20
2023-02-15T15:49:05.730Z,33.53
2023-02-15T15:51:37.164Z,31.47
2023-02-15T15:54:06.407Z,31.83
2023-02-15T15:56:38.407Z,34.80
2023-02-15T15:59:08.145Z,31.90
2023-02-15T16:01:39.338Z,30.73
2023-02-15T16:04:07.783Z,36.60
2023-02-15T16:06:37.414Z,35.60
2023-02-15T16:09:13.224Z,33.83
2023-02-15T16:11:44.123Z,32.10
2023-02-15T16:14:16.447Z,32.30
2023-02-15T16:16:49.323Z,31.33
2023-02-15T16:19:21.368Z,32.07
2023-02-15T16:21:50.680Z,30.57
2023-02-15T16:24:25.521Z,32.23
2023-02-15T16:27:11.573Z,31.70
2023-02-15T16:29:41.528Z,29.87
2023-02-15T16:32:18.633Z,31.80
2023-02-15T16:34:53.649Z,29.60
2023-02-15T16:37:24.515Z,27.97
2023-02-15T16:39:53.141Z,28.90
2023-02-15T16:42:21.576Z,30.87
2023-02-15T16:44:53.026Z,32.23
2023-02-15T16:47:23.946Z,31.57
2023-02-15T16:49:53.418Z,35.70
2023-02-15T16:52:23.244Z,36.63
2023-02-15T16:54:54.911Z,40.30
2023-02-15T16:57:24.337Z,41.20
2023-02-15T16:59:54.996Z,40.20
2023-02-15T17:02:49.333Z,43.20
2023-02-15T17:05:19.495Z,39.57
2023-02-15T17:08:02.746Z,35.53
2023-02-15T17:10:33.280Z,34.17
2023-02-15T17:13:05.132Z,34.50
2023-02-15T17:15:36.636Z,33.40
2023-02-15T17:18:06.777Z,35.50
2023-02-15T17:20:37.436Z,40.37
2023-02-15T17:23:06.293Z,42.83
2023-02-15T17:25:38.278Z,43.73
2023-02-15T17:28:07.344Z,46.10
2023-02-15T17:30:39.959Z,48.43
2023-02-15T17:33:21.400Z,51.27
2023-02-15T17:36:04.732Z,51.73
2023-02-15T17:38:33.218Z,52.50
2023-02-15T17:41:01.920Z,54.37
2023-02-15T17:43:30.470Z,57.67
2023-02-15T17:46:00.641Z,54.57
2023-02-15T17:48:33.184Z,56.73
2023-02-15T17:51:03.231Z,57.17
2023-02-15T17:53:32.957Z,57.80
2023-02-15T17:56:00.364Z,61.37
2023-02-15T17:58:28.771Z,58.93
2023-02-15T18:01:16.587Z,60.00
2023-02-15T18:04:05.939Z,59.07
2023-02-15T18:06:52.251Z,60.93
2023-02-15T18:09:39.292Z,64.27
2023-02-15T18:12:17.516Z,72.20
2023-02-15T18:14:45.966Z,73.63
2023-02-15T18:17:15.488Z,73.63
2023-02-15T18:19:45.948Z,76.73
2023-02-15T18:22:14.968Z,77.17
2023-02-15T18:24:43.920Z,79.43
2023-02-15T18:27:12.880Z,79.70
2023-02-15T18:29:41.339Z,79.60
2023-02-15T18:32:10.929Z,77.53
2023-02-15T18:34:40.608Z,77.40
2023-02-15T18:37:15.091Z,75.47
2023-02-15T18:39:46.725Z,72.03
2023-02-15T18:42:20.771Z,72.20
2023-02-15T18:44:49.342Z,71.27
2023-02-15T18:47:17.730Z,72.73
2023-02-15T18:49:46.160Z,69.17
2023-02-15T18:52:17.855Z,70.80
2023-02-15T18:54:46.615Z,70.47
2023-02-15T18:57:16.448Z,68.77
2023-02-15T18:59:44.916Z,69.00
2023-02-15T19:02:17.443Z,67.97
2023-02-15T19:04:46.577Z,67.60
2023-02-15T19:07:18.924Z,66.90
2023-02-15T19:09:49.384Z,64.97
2023-02-15T19:12:19.580Z,64.90
2023-02-15T19:14:48.042Z,66.67
2023-02-15T19:17:17.082Z,64.13
2023-02-15T19:19:45.488Z,67.00
2023-02-15T19:22:15.322Z,66.60
2023-02-15T19:24:46.111Z,63.70
2023-02-15T19:27:20.625Z,66.17
2023-02-15T19:29:49.308Z,62.80
2023-02-15T19:32:17.772Z,62.80
2023-02-15T19:34:46.224Z,63.70
2023-02-15T19:37:20.509Z,62.13
2023-02-15T19:39:50.299Z,63.27
2023-02-15T19:42:20.532Z,60.33
2023-02-15T19:44:49.137Z,63.80
2023-02-15T19:47:17.952Z,62.90
2023-02-15T19:49:46.361Z,61.90
2023-02-15T19:52:18.304Z,61.57
2023-02-15T19:54:47.042Z,61.57
2023-02-15T19:57:17.212Z,59.33
2023-02-15T19:59:45.953Z,60.50
2023-02-15T20:02:15.623Z,60.73
2023-02-15T20:04:44.140Z,59.60
2023-02-15T20:07:17.858Z,60.23
2023-02-15T20:09:46.235Z,61.63
2023-02-15T20:12:21.801Z,62.03
2023-02-15T20:14:50.220Z,60.70
2023-02-15T20:17:18.622Z,63.07
2023-02-15T20:19:47.164Z,63.77
2023-02-15T20:22:23.148Z,61.53
2023-02-15T20:24:52.303Z,63.50
2023-02-15T20:27:22.146Z,64.30
2023-02-15T20:29:51.380Z,65.87
2023-02-15T20:32:20.092Z,67.83
2023-02-15T20:34:48.548Z,68.83
2023-02-15T20:37:22.587Z,68.97
2023-02-15T20:39:51.064Z,70.07
2023-02-15T20:42:20.074Z,69.27
2023-02-15T20:44:49.871Z,71.23
2023-02-15T20:47:18.512Z,74.27
2023-02-15T20:49:46.969Z,72.60
2023-02-15T20:52:20.656Z,73.27
2023-02-15T20:54:49.320Z,73.47
2023-02-15T20:57:17.732Z,76.00
2023-02-15T20:59:46.233Z,72.93
2023-02-15T21:02:19.177Z,74.70
2023-02-15T21:04:47.875Z,76.77
2023-02-15T21:07:17.092Z,78.43
2023-02-15T21:09:45.820Z,78.07
2023-02-15T21:12:15.353Z,77.53
2023-02-15T21:14:44.278Z,77.63
2023-02-15T21:17:13.219Z,78.10
2023-02-15T21:19:43.201Z,76.33
2023-02-15T21:22:13.615Z,75.90
2023-02-15T21:24:45.212Z,77.23
2023-02-15T21:27:14.737Z,76.07
2023-02-15T21:29:43.183Z,75.80
2023-02-15T21:32:12.191Z,76.57
2023-02-15T21:34:41.070Z,76.10
2023-02-15T21:37:21.133Z,77.13
2023-02-15T21:39:49.519Z,75.83
2023-02-15T21:42:35.670Z,74.70
2023-02-15T21:45:21.778Z,74.57
2023-02-15T21:47:53.317Z,71.50
2023-02-15T21:50:40.436Z,70.77
2023-02-15T21:53:14.072Z,72.30
2023-02-15T21:55:42.766Z,67.97
2023-02-15T21:58:16.831Z,68.20
2023-02-15T22:00:45.280Z,73.40
2023-02-15T22:03:14.043Z,70.00
2023-02-15T22:05:42.467Z,72.80
2023-02-15T22:08:14.165Z,71.57
2023-02-15T22:10:42.992Z,72.13
2023-02-15T22:13:14.339Z,73.67
2023-02-15T22:15:43.036Z,67.73
2023-02-15T22:18:15.567Z,70.03
2023-02-15T22:20:43.934Z,65.43
2023-02-15T22:23:13.780Z,67.47
2023-02-15T22:25:42.313Z,68.87
2023-02-15T22:28:16.687Z,69.43
2023-02-15T22:30:46.619Z,66.13
2023-02-15T22:33:23.690Z,70.23
2023-02-15T22:35:52.473Z,68.53
2023-02-15T22:38:22.593Z,67.83
2023-02-15T22:40:51.629Z,66.03
2023-02-15T22:43:23.607Z,67.30
2023-02-15T22:45:52.159Z,65.50
2023-02-15T22:48:23.485Z,68.63
2023-02-15T22:50:51.893Z,67.27
2023-02-15T22:53:21.725Z,69.47
2023-02-15T22:55:50.442Z,68.87
2023-02-15T22:58:22.172Z,67.20
2023-02-15T23:00:50.656Z,66.23
2023-02-15T23:03:20.003Z,66.67
2023-02-15T23:05:48.421Z,64.00
2023-02-15T23:08:16.926Z,63.30
2023-02-15T23:10:48.168Z,60.00
2023-02-15T23:13:25.807Z,59.17
2023-02-15T23:15:56.049Z,54.20
2023-02-15T23:18:26.375Z,51.73
2023-02-15T23:20:55.959Z,52.23
2023-02-15T23:23:34.822Z,50.03
2023-02-15T23:26:04.932Z,50.83
2023-02-15T23:28:35.955Z,49.47
2023-02-15T23:31:05.285Z,48.60
2023-02-15T23:33:35.413Z,48.80
2023-02-15T23:36:03.870Z,47.77
2023-02-15T23:38:34.180Z,45.87
2023-02-15T23:41:19.258Z,46.43
2023-02-15T23:43:48.836Z,46.77
2023-02-15T23:46:31.218Z,45.07
2023-02-15T23:48:59.663Z,45.20
2023-02-15T23:51:30.615Z,45.83
2023-02-15T23:53:59.060Z,43.50
2023-02-15T23:56:28.900Z,42.50
2023-02-15T23:58:57.295Z,40.40
